createdAt,value
2023-05-05T00:01:03.561Z,10.73
2023-05-05T00:02:35.881Z,10.70
2023-05-05T00:04:07.995Z,10.70
2023-05-05T00:05:40.100Z,10.68
2023-05-05T00:07:12.061Z,10.65
2023-05-05T00:08:44.182Z,10.64
2023-05-05T00:10:16.272Z,10.65
2023-05-05T00:11:48.316Z,10.64
2023-05-05T00:13:21.365Z,10.67
2023-05-05T00:14:53.491Z,10.64
2023-05-05T00:16:25.645Z,10.63
2023-05-05T00:17:57.782Z,10.62
2023-05-05T00:19:30.013Z,10.61
2023-05-05T00:21:02.228Z,10.64
2023-05-05T00:22:34.249Z,10.65
2023-05-05T00:24:06.588Z,10.67
2023-05-05T00:25:41.515Z,10.69
2023-05-05T00:27:13.565Z,10.70
2023-05-05T00:28:45.617Z,10.70
2023-05-05T00:30:17.749Z,10.71
2023-05-05T00:31:52.619Z,10.76
2023-05-05T00:33:24.894Z,10.76
2023-05-05T00:34:57.186Z,10.77
2023-05-05T00:36:29.365Z,10.79
2023-05-05T00:38:01.465Z,10.81
2023-05-05T00:39:33.688Z,10.82
2023-05-05T00:41:05.822Z,10.82
2023-05-05T00:42:40.910Z,10.86
2023-05-05T00:44:13.138Z,10.83
2023-05-05T00:45:48.205Z,10.83
2023-05-05T00:47:20.385Z,10.81
2023-05-05T00:48:52.851Z,10.80
2023-05-05T00:50:29.892Z,10.83
2023-05-05T00:52:02.642Z,10.83
2023-05-05T00:53:35.256Z,10.82
2023-05-05T00:55:07.645Z,10.81
2023-05-05T00:56:39.748Z,10.79
2023-05-05T00:58:11.744Z,10.78
2023-05-05T00:59:44.121Z,10.77
2023-05-05T01:01:16.941Z,10.76
2023-05-05T01:02:49.218Z,10.76
2023-05-05T01:04:21.636Z,10.80
2023-05-05T01:06:06.701Z,10.83
2023-05-05T01:07:42.152Z,10.85
2023-05-05T01:09:39.125Z,10.86
2023-05-05T01:11:18.772Z,10.88
2023-05-05T01:12:59.559Z,10.84
2023-05-05T01:14:50.742Z,10.89
2023-05-05T01:16:26.558Z,10.87
2023-05-05T01:18:05.634Z,10.84
2023-05-05T01:19:43.877Z,10.89
2023-05-05T01:21:20.780Z,10.88
2023-05-05T01:22:58.786Z,10.85
2023-05-05T01:24:50.906Z,10.90
2023-05-05T01:26:31.697Z,10.94
2023-05-05T01:28:22.248Z,10.90
2023-05-05T01:30:36.946Z,10.98
2023-05-05T01:32:11.620Z,10.97
2023-05-05T01:33:49.948Z,10.96
2023-05-05T01:35:35.924Z,10.95
2023-05-05T01:37:10.832Z,10.93
2023-05-05T01:38:44.648Z,10.95
2023-05-05T01:40:21.760Z,10.97
2023-05-05T01:41:59.277Z,10.97
2023-05-05T01:43:34.996Z,11.00
2023-05-05T01:45:11.577Z,10.98
2023-05-05T01:46:43.654Z,10.94
2023-05-05T01:48:17.862Z,11.00
2023-05-05T01:49:50.777Z,10.99
2023-05-05T01:51:23.961Z,11.02
2023-05-05T01:52:57.093Z,11.04
2023-05-05T01:54:29.298Z,11.04
2023-05-05T01:56:02.716Z,11.03
2023-05-05T01:57:34.654Z,11.12
2023-05-05T01:59:07.529Z,11.09
2023-05-05T02:00:39.893Z,11.09
2023-05-05T02:02:16.635Z,11.11
2023-05-05T02:03:49.946Z,11.13
2023-05-05T02:05:23.249Z,11.12
2023-05-05T02:06:56.720Z,11.14
2023-05-05T02:08:28.610Z,11.18
2023-05-05T02:10:02.853Z,11.15
2023-05-05T02:11:35.138Z,11.13
2023-05-05T02:13:08.026Z,11.15
2023-05-05T02:14:41.284Z,11.17
2023-05-05T02:16:13.726Z,11.15
2023-05-05T02:17:49.090Z,11.17
2023-05-05T02:19:23.610Z,11.17
2023-05-05T02:20:55.886Z,11.16
2023-05-05T02:22:28.319Z,11.17
2023-05-05T02:24:01.008Z,11.19
2023-05-05T02:25:39.096Z,11.22
2023-05-05T02:27:11.726Z,11.20
2023-05-05T02:29:07.743Z,11.20
2023-05-05T02:30:40.592Z,11.21
2023-05-05T02:32:18.981Z,11.24
2023-05-05T02:33:52.285Z,11.21
2023-05-05T02:35:27.988Z,11.22
2023-05-05T02:37:01.530Z,11.22
2023-05-05T02:38:34.151Z,11.20
2023-05-05T02:40:08.953Z,11.21
2023-05-05T02:41:42.024Z,11.21
2023-05-05T02:43:17.536Z,11.23
2023-05-05T02:44:50.699Z,11.20
2023-05-05T02:46:22.838Z,11.19
2023-05-05T02:47:54.990Z,11.21
2023-05-05T02:49:27.490Z,11.20
2023-05-05T02:50:59.662Z,11.10
2023-05-05T02:52:35.045Z,11.24
2023-05-05T02:54:07.407Z,11.21
2023-05-05T02:55:54.588Z,11.23
2023-05-05T02:57:33.445Z,11.24
2023-05-05T02:59:28.370Z,11.26
2023-05-05T03:01:21.197Z,11.27
2023-05-05T03:03:02.237Z,11.27
2023-05-05T03:04:47.795Z,11.29
2023-05-05T03:06:21.867Z,11.29
2023-05-05T03:08:03.873Z,11.33
2023-05-05T03:09:42.476Z,11.33
2023-05-05T03:11:43.398Z,11.34
2023-05-05T03:13:18.473Z,11.32
2023-05-05T03:14:52.682Z,11.32
2023-05-05T03:16:25.269Z,11.29
2023-05-05T03:17:58.852Z,11.29
2023-05-05T03:19:31.932Z,11.28
2023-05-05T03:21:09.144Z,11.28
2023-05-05T03:22:41.284Z,11.27
2023-05-05T03:24:17.999Z,11.31
2023-05-05T03:25:50.570Z,11.30
2023-05-05T03:27:22.820Z,11.31
2023-05-05T03:28:54.932Z,11.32
2023-05-05T03:30:27.191Z,11.28
2023-05-05T03:31:59.742Z,11.32
2023-05-05T03:33:31.885Z,11.32
2023-05-05T03:35:04.173Z,11.32
2023-05-05T03:36:36.692Z,11.32
2023-05-05T03:38:08.826Z,11.33
2023-05-05T03:39:40.924Z,11.33
2023-05-05T03:41:16.089Z,11.38
2023-05-05T03:42:48.264Z,11.36
2023-05-05T03:44:20.350Z,11.37
2023-05-05T03:45:52.485Z,11.38
2023-05-05T03:47:25.055Z,11.38
2023-05-05T03:49:00.188Z,11.39
2023-05-05T03:50:32.294Z,11.40
2023-05-05T03:52:04.695Z,11.42
2023-05-05T03:53:36.808Z,11.40
2023-05-05T03:55:09.300Z,11.42
2023-05-05T03:56:41.414Z,11.42
2023-05-05T03:58:14.828Z,11.43
2023-05-05T03:59:46.999Z,11.50
2023-05-05T04:01:19.118Z,11.45
2023-05-05T04:02:51.645Z,11.43
2023-05-05T04:04:23.903Z,11.42
2023-05-05T04:05:56.331Z,11.43
2023-05-05T04:07:28.450Z,11.45
2023-05-05T04:09:00.551Z,11.45
2023-05-05T04:10:32.774Z,11.46
2023-05-05T04:12:05.361Z,11.50
2023-05-05T04:13:37.464Z,11.51
2023-05-05T04:15:10.189Z,11.56
2023-05-05T04:16:42.464Z,11.58
2023-05-05T04:18:14.667Z,11.60
2023-05-05T04:19:46.731Z,11.63
2023-05-05T04:21:18.887Z,11.64
2023-05-05T04:22:52.716Z,11.63
2023-05-05T04:24:25.500Z,11.65
2023-05-05T04:25:57.946Z,11.65
2023-05-05T04:27:30.935Z,11.64
2023-05-05T04:29:03.110Z,11.65
2023-05-05T04:30:35.177Z,11.67
2023-05-05T04:32:07.247Z,11.70
2023-05-05T04:33:39.335Z,11.71
2023-05-05T04:35:11.495Z,11.74
2023-05-05T04:36:43.680Z,11.77
2023-05-05T04:38:15.941Z,11.74
2023-05-05T04:39:48.082Z,11.77
2023-05-05T04:42:53.260Z,11.82
2023-05-05T04:44:25.358Z,11.85
2023-05-05T04:45:57.469Z,11.87
2023-05-05T04:47:29.725Z,11.90
2023-05-05T04:49:02.360Z,11.93
2023-05-05T04:50:34.426Z,11.95
2023-05-05T04:52:07.608Z,11.98
2023-05-05T04:53:39.969Z,12.00
2023-05-05T04:55:12.166Z,12.03
2023-05-05T04:56:44.297Z,12.04
2023-05-05T04:58:16.468Z,12.04
2023-05-05T04:59:48.619Z,12.06
2023-05-05T05:01:20.815Z,12.06
2023-05-05T05:02:53.615Z,12.08
2023-05-05T05:04:27.527Z,12.10
2023-05-05T05:05:59.634Z,12.13
2023-05-05T05:07:31.774Z,12.18
2023-05-05T05:09:04.209Z,12.19
2023-05-05T05:10:36.934Z,12.22
2023-05-05T05:12:10.181Z,12.21
2023-05-05T05:13:42.260Z,12.23
2023-05-05T05:15:14.418Z,12.24
2023-05-05T05:16:46.612Z,12.25
2023-05-05T05:18:18.774Z,12.27
2023-05-05T05:19:50.854Z,12.30
2023-05-05T05:21:22.993Z,12.31
2023-05-05T05:22:55.154Z,12.32
2023-05-05T05:24:27.318Z,12.32
2023-05-05T05:25:59.527Z,12.33
2023-05-05T05:27:31.816Z,12.37
2023-05-05T05:29:04.624Z,12.39
2023-05-05T05:30:36.959Z,12.40
2023-05-05T05:32:09.270Z,12.42
2023-05-05T05:33:42.160Z,12.44
2023-05-05T05:35:14.258Z,12.46
2023-05-05T05:36:46.301Z,12.46
2023-05-05T05:38:18.478Z,12.50
2023-05-05T05:39:53.613Z,12.56
2023-05-05T05:41:25.824Z,12.53
2023-05-05T05:42:57.916Z,12.53
2023-05-05T05:44:30.078Z,12.57
2023-05-05T05:46:02.269Z,12.58
2023-05-05T05:47:34.355Z,12.60
2023-05-05T05:49:06.662Z,12.61
2023-05-05T05:50:38.795Z,12.62
2023-05-05T05:52:11.076Z,12.66
2023-05-05T05:53:43.140Z,12.66
2023-05-05T05:55:15.234Z,12.68
2023-05-05T05:56:47.332Z,12.70
2023-05-05T05:58:19.804Z,12.70
2023-05-05T05:59:54.305Z,12.72
2023-05-05T06:01:26.451Z,12.68
2023-05-05T06:02:58.672Z,12.68
2023-05-05T06:04:31.934Z,12.69
2023-05-05T06:06:04.217Z,12.70
2023-05-05T06:07:36.355Z,12.74
2023-05-05T06:09:08.636Z,12.76
2023-05-05T06:10:43.130Z,12.78
2023-05-05T06:12:15.228Z,12.78
2023-05-05T06:13:47.329Z,12.78
2023-05-05T06:15:19.412Z,12.79
2023-05-05T06:16:52.690Z,12.79
2023-05-05T06:18:24.961Z,12.80
2023-05-05T06:19:57.149Z,12.80
2023-05-05T06:21:29.336Z,12.84
2023-05-05T06:23:01.533Z,12.82
2023-05-05T06:24:33.715Z,12.85
2023-05-05T06:26:05.887Z,12.86
2023-05-05T06:27:38.209Z,12.86
2023-05-05T06:29:12.208Z,12.86
2023-05-05T06:30:44.711Z,12.89
2023-05-05T06:32:16.824Z,12.92
2023-05-05T06:33:48.846Z,12.95
2023-05-05T06:35:21.545Z,12.99
2023-05-05T06:36:53.699Z,13.00
2023-05-05T06:38:25.842Z,13.03
2023-05-05T06:39:58.061Z,13.06
2023-05-05T06:41:30.428Z,13.11
2023-05-05T06:43:05.139Z,13.15
2023-05-05T06:44:37.445Z,13.19
2023-05-05T06:46:09.507Z,13.22
2023-05-05T06:47:42.747Z,13.25
2023-05-05T06:49:14.865Z,13.25
2023-05-05T06:50:46.953Z,13.25
2023-05-05T06:52:19.035Z,13.25
2023-05-05T06:53:51.476Z,13.27
2023-05-05T06:55:24.095Z,13.31
2023-05-05T06:56:59.799Z,13.32
2023-05-05T06:58:32.133Z,13.34
2023-05-05T07:00:06.313Z,13.41
2023-05-05T07:01:38.429Z,13.38
2023-05-05T07:03:10.897Z,13.39
2023-05-05T07:04:44.147Z,13.40
2023-05-05T07:06:16.355Z,13.40
2023-05-05T07:07:55.525Z,13.45
2023-05-05T07:09:29.811Z,13.45
2023-05-05T07:11:01.957Z,13.46
2023-05-05T07:12:34.092Z,13.45
2023-05-05T07:14:06.679Z,13.49
2023-05-05T07:15:47.848Z,13.56
2023-05-05T07:17:19.963Z,13.52
2023-05-05T07:18:52.052Z,13.53
2023-05-05T07:20:24.588Z,13.52
2023-05-05T07:21:56.850Z,13.53
2023-05-05T07:23:28.978Z,13.56
2023-05-05T07:25:01.153Z,13.57
2023-05-05T07:26:33.354Z,13.55
2023-05-05T07:28:05.852Z,13.56
2023-05-05T13:36:30.443Z,16.13
2023-05-05T13:38:02.517Z,16.14
2023-05-05T13:39:34.704Z,16.14
2023-05-05T13:41:06.837Z,16.16
2023-05-05T13:42:39.101Z,16.12
2023-05-05T13:44:11.333Z,16.13
2023-05-05T13:45:43.418Z,16.10
2023-05-05T13:47:15.584Z,16.07
2023-05-05T13:48:47.785Z,16.09
2023-05-05T13:50:19.950Z,16.08
2023-05-05T13:51:52.146Z,16.08
2023-05-05T13:53:24.396Z,16.08
2023-05-05T13:54:56.524Z,16.10
2023-05-05T13:56:28.710Z,16.12
2023-05-05T13:58:00.965Z,16.12
2023-05-05T13:59:33.137Z,16.15
2023-05-05T14:01:05.458Z,16.15
2023-05-05T14:02:37.716Z,16.15
2023-05-05T14:04:09.881Z,16.16
2023-05-05T14:05:43.318Z,16.18
2023-05-05T14:07:15.418Z,16.20
2023-05-05T14:08:47.611Z,16.21
2023-05-05T14:10:19.723Z,16.22
2023-05-05T14:11:51.990Z,16.22
2023-05-05T14:13:24.178Z,16.21
2023-05-05T14:14:56.260Z,16.20
2023-05-05T14:16:28.445Z,16.22
2023-05-05T14:18:00.767Z,16.24
2023-05-05T14:19:32.996Z,16.23
2023-05-05T14:21:05.186Z,16.25
2023-05-05T14:22:37.709Z,16.23
2023-05-05T14:24:10.057Z,16.22
2023-05-05T14:25:43.128Z,16.23
2023-05-05T14:27:15.348Z,16.24
2023-05-05T14:28:49.723Z,16.22
2023-05-05T14:30:22.381Z,16.23
2023-05-05T14:31:54.617Z,16.23
2023-05-05T14:33:27.001Z,16.26
2023-05-05T14:34:59.068Z,16.26
2023-05-05T14:36:31.816Z,16.27
2023-05-05T14:38:04.008Z,16.26
2023-05-05T14:39:36.256Z,16.26
2023-05-05T14:41:08.476Z,16.26
2023-05-05T14:42:40.844Z,16.34
2023-05-05T14:44:13.200Z,16.48
2023-05-05T14:45:45.415Z,16.62
2023-05-05T14:47:17.640Z,16.78
2023-05-05T14:48:49.867Z,16.92
2023-05-05T14:50:22.263Z,17.09
2023-05-05T14:51:55.495Z,17.17
2023-05-05T14:53:29.056Z,17.28
2023-05-05T14:55:01.446Z,17.33
2023-05-05T14:56:33.667Z,17.38
2023-05-05T14:58:05.935Z,17.45
2023-05-05T14:59:38.089Z,17.47
2023-05-05T15:01:10.262Z,17.49
2023-05-05T15:02:42.517Z,17.46
2023-05-05T15:04:14.950Z,17.37
2023-05-05T15:05:47.134Z,17.37
2023-05-05T15:07:20.803Z,17.31
2023-05-05T15:08:53.100Z,17.25
2023-05-05T15:10:25.549Z,17.24
2023-05-05T15:11:57.844Z,17.21
2023-05-05T15:13:30.587Z,17.18
2023-05-05T15:15:02.865Z,17.16
2023-05-05T15:16:35.565Z,17.16
2023-05-05T15:18:08.004Z,17.18
2023-05-05T15:19:40.200Z,17.17
2023-05-05T15:21:12.503Z,17.15
2023-05-05T15:22:44.965Z,17.10
2023-05-05T15:24:17.205Z,17.08
2023-05-05T15:25:49.333Z,17.08
2023-05-05T15:27:21.651Z,17.07
2023-05-05T15:28:53.753Z,17.02
2023-05-05T15:30:26.040Z,16.99
2023-05-05T15:31:58.455Z,16.98
2023-05-05T15:33:34.098Z,16.96
2023-05-05T15:35:07.338Z,16.94
2023-05-05T15:36:39.519Z,16.97
2023-05-05T15:38:11.846Z,16.91
2023-05-05T15:39:44.113Z,16.87
2023-05-05T15:41:16.552Z,16.85
2023-05-05T15:42:50.258Z,16.83
2023-05-05T15:44:22.500Z,16.80
2023-05-05T15:45:55.095Z,16.76
2023-05-05T15:47:27.456Z,16.74
2023-05-05T15:48:59.759Z,16.71
2023-05-05T15:50:32.104Z,16.66
2023-05-05T15:52:04.321Z,16.69
2023-05-05T15:53:36.515Z,16.69
2023-05-05T15:55:09.707Z,16.68
2023-05-05T15:56:41.750Z,16.70
2023-05-05T15:58:14.057Z,16.64
2023-05-05T15:59:46.417Z,16.62
2023-05-05T16:01:18.764Z,16.61
2023-05-05T16:02:51.336Z,16.61
2023-05-05T16:04:23.725Z,16.60
2023-05-05T16:05:56.057Z,16.57
2023-05-05T16:07:28.314Z,16.56
2023-05-05T16:09:00.688Z,16.55
2023-05-05T16:10:32.874Z,16.52
2023-05-05T16:12:05.961Z,16.52
2023-05-05T16:13:39.582Z,16.48
2023-05-05T16:15:12.234Z,16.47
2023-05-05T16:16:44.533Z,16.43
2023-05-05T16:18:16.751Z,16.42
2023-05-05T16:19:51.858Z,16.41
2023-05-05T16:21:24.200Z,16.35
2023-05-05T16:22:56.434Z,16.33
2023-05-05T16:24:28.704Z,16.31
2023-05-05T16:26:00.892Z,16.31
2023-05-05T16:27:33.091Z,16.29
2023-05-05T16:29:05.308Z,16.26
2023-05-05T16:30:38.576Z,16.25
2023-05-05T16:32:10.849Z,16.24
2023-05-05T16:33:44.161Z,16.22
2023-05-05T16:35:16.188Z,16.26
2023-05-05T16:36:48.425Z,16.19
2023-05-05T16:38:20.758Z,16.18
2023-05-05T16:39:53.030Z,16.16
2023-05-05T16:41:26.431Z,16.14
2023-05-05T16:43:01.560Z,16.11
2023-05-05T16:44:33.798Z,16.08
2023-05-05T16:46:07.105Z,16.10
2023-05-05T16:47:39.208Z,16.12
2023-05-05T16:49:11.539Z,16.06
2023-05-05T16:50:43.838Z,16.01
2023-05-05T16:52:16.211Z,16.01
2023-05-05T16:53:49.131Z,15.98
2023-05-05T16:55:21.559Z,15.96
2023-05-05T16:56:54.292Z,15.93
2023-05-05T16:58:26.698Z,15.91
2023-05-05T16:59:58.869Z,15.90
2023-05-05T17:01:31.107Z,15.87
2023-05-05T17:03:03.598Z,15.85
2023-05-05T17:04:35.830Z,15.83
2023-05-05T17:06:08.086Z,15.79
2023-05-05T17:07:40.772Z,15.76
2023-05-05T17:09:13.031Z,15.72
2023-05-05T17:10:45.899Z,15.72
2023-05-05T17:12:18.172Z,15.67
2023-05-05T17:13:50.472Z,15.66
2023-05-05T17:15:22.777Z,15.64
2023-05-05T17:16:55.043Z,15.61
2023-05-05T17:18:27.364Z,15.59
2023-05-05T17:19:59.777Z,15.57
2023-05-05T17:21:32.044Z,15.55
2023-05-05T17:23:04.312Z,15.49
2023-05-05T17:24:36.900Z,15.48
2023-05-05T17:26:09.138Z,15.46
2023-05-05T17:27:42.189Z,15.43
2023-05-05T17:29:15.590Z,15.41
2023-05-05T17:30:47.636Z,15.43
2023-05-05T17:32:19.850Z,15.36
2023-05-05T17:33:52.052Z,15.33
2023-05-05T17:35:24.344Z,15.30
2023-05-05T17:36:56.920Z,15.28
2023-05-05T17:38:29.241Z,15.24
2023-05-05T17:40:01.432Z,15.22
2023-05-05T17:41:33.851Z,15.18
2023-05-05T17:43:06.097Z,15.16
2023-05-05T17:44:38.378Z,15.12
2023-05-05T17:46:10.588Z,15.13
2023-05-05T17:47:43.040Z,15.11
2023-05-05T17:50:48.088Z,15.03
2023-05-05T17:52:21.138Z,15.02
2023-05-05T17:53:53.685Z,14.98
2023-05-05T17:55:26.285Z,14.94
2023-05-05T17:57:00.049Z,14.93
2023-05-05T17:58:32.221Z,14.90
2023-05-05T18:00:06.159Z,14.89
2023-05-05T18:01:41.293Z,14.85
2023-05-05T18:03:13.880Z,14.84
2023-05-05T18:04:46.985Z,14.83
2023-05-05T18:06:19.317Z,14.79
2023-05-05T18:07:51.479Z,14.78
2023-05-05T18:09:23.927Z,14.78
2023-05-05T18:10:56.176Z,14.76
2023-05-05T18:12:28.550Z,14.71
2023-05-05T18:14:00.926Z,14.68
2023-05-05T18:15:33.191Z,14.62
2023-05-05T18:17:05.559Z,14.54
2023-05-05T18:18:37.723Z,14.51
2023-05-05T18:20:10.648Z,14.45
2023-05-05T18:21:43.178Z,14.42
2023-05-05T18:23:15.363Z,14.39
2023-05-05T18:24:47.552Z,14.36
2023-05-05T18:26:19.874Z,14.34
2023-05-05T18:27:52.178Z,14.32
2023-05-05T18:29:24.480Z,14.30
2023-05-05T18:30:56.568Z,14.29
2023-05-05T18:32:28.742Z,14.28
2023-05-05T18:34:00.963Z,14.26
2023-05-05T18:35:33.378Z,14.24
2023-05-05T18:37:05.634Z,14.21
2023-05-05T18:38:37.815Z,14.16
2023-05-05T18:40:10.675Z,14.21
2023-05-05T18:41:42.806Z,14.19
2023-05-05T18:43:14.943Z,14.18
2023-05-05T18:44:47.363Z,14.17
2023-05-05T18:46:19.787Z,14.14
2023-05-05T18:47:51.869Z,14.08
2023-05-05T18:49:25.166Z,14.02
2023-05-05T18:51:04.188Z,13.97
2023-05-05T18:52:36.344Z,13.94
2023-05-05T18:54:08.622Z,13.91
2023-05-05T18:55:43.112Z,13.89
2023-05-05T18:57:15.256Z,13.87
2023-05-05T18:58:47.417Z,13.85
2023-05-05T19:00:21.230Z,13.84
2023-05-05T19:01:53.318Z,13.80
2023-05-05T19:03:25.528Z,13.76
2023-05-05T19:04:57.830Z,13.71
2023-05-05T19:06:30.271Z,13.64
2023-05-05T19:08:02.390Z,13.55
2023-05-05T19:09:34.560Z,13.51
2023-05-05T19:11:06.913Z,13.45
2023-05-05T19:12:39.194Z,13.43
2023-05-05T19:14:11.377Z,13.47
2023-05-05T19:15:43.463Z,13.47
2023-05-05T19:17:15.525Z,13.43
2023-05-05T19:18:47.744Z,13.44
2023-05-05T19:20:20.297Z,13.45
2023-05-05T19:21:52.410Z,13.44
2023-05-05T19:23:24.678Z,13.42
2023-05-05T19:24:56.948Z,13.40
2023-05-05T19:26:29.121Z,13.41
2023-05-05T19:28:01.450Z,13.42
2023-05-05T19:29:33.817Z,13.40
2023-05-05T19:31:06.100Z,13.41
2023-05-05T19:32:38.339Z,13.40
2023-05-05T19:34:10.530Z,13.37
2023-05-05T19:35:42.956Z,13.35
2023-05-05T19:37:15.104Z,13.34
2023-05-05T19:38:47.364Z,13.31
2023-05-05T19:40:19.534Z,13.27
2023-05-05T19:41:52.020Z,13.22
2023-05-05T19:43:24.171Z,13.18
2023-05-05T19:44:56.232Z,13.14
2023-05-05T19:46:28.478Z,13.07
2023-05-05T19:48:01.886Z,13.01
2023-05-05T19:49:33.883Z,13.01
2023-05-05T19:51:06.008Z,12.94
2023-05-05T19:52:38.755Z,12.88
2023-05-05T19:54:10.941Z,12.86
2023-05-05T19:55:43.138Z,12.84
2023-05-05T19:57:15.495Z,12.81
2023-05-05T19:58:57.823Z,12.81
2023-05-05T20:00:30.061Z,12.74
2023-05-05T20:02:02.127Z,12.72
2023-05-05T20:03:34.374Z,12.64
2023-05-05T20:05:07.131Z,12.59
2023-05-05T20:06:39.335Z,12.52
2023-05-05T20:08:11.443Z,12.49
2023-05-05T20:09:43.554Z,12.43
2023-05-05T20:11:17.270Z,12.39
2023-05-05T20:12:49.511Z,12.33
2023-05-05T20:14:21.756Z,12.28
2023-05-05T20:15:53.893Z,12.24
2023-05-05T20:17:26.689Z,12.23
2023-05-05T20:18:58.791Z,12.24
2023-05-05T20:20:30.980Z,12.25
2023-05-05T20:22:03.073Z,12.23
2023-05-05T20:23:35.419Z,12.23
2023-05-05T20:25:07.811Z,12.21
2023-05-05T20:26:39.906Z,12.18
2023-05-05T20:28:12.265Z,12.14
2023-05-05T20:29:44.354Z,12.09
2023-05-05T20:31:16.584Z,12.08
2023-05-05T20:32:48.718Z,12.05
2023-05-05T20:34:20.824Z,12.05
2023-05-05T20:35:52.929Z,12.01
2023-05-05T20:37:27.460Z,11.98
2023-05-05T20:38:59.506Z,11.94
2023-05-05T20:40:33.628Z,11.93
2023-05-05T20:42:05.826Z,11.94
2023-05-05T20:43:38.243Z,11.93
2023-05-05T20:45:11.676Z,11.91
2023-05-05T20:46:43.671Z,11.95
2023-05-05T20:48:15.950Z,11.90
2023-05-05T20:49:48.004Z,11.91
2023-05-05T20:51:20.654Z,11.89
2023-05-05T20:52:52.781Z,11.88
2023-05-05T20:54:24.945Z,11.85
2023-05-05T20:55:57.040Z,11.84
2023-05-05T20:57:29.089Z,11.84
2023-05-05T20:59:04.976Z,11.82
2023-05-05T21:00:37.490Z,11.82
2023-05-05T21:02:09.913Z,11.84
2023-05-05T21:03:41.997Z,11.85
2023-05-05T21:05:14.572Z,11.83
2023-05-05T21:06:47.625Z,11.83
2023-05-05T21:08:19.741Z,11.86
2023-05-05T21:09:51.875Z,11.81
2023-05-05T21:11:23.955Z,11.81
2023-05-05T21:12:56.240Z,11.78
2023-05-05T21:14:29.680Z,11.76
2023-05-05T21:16:01.579Z,11.78
2023-05-05T21:17:33.853Z,11.70
2023-05-05T21:19:06.259Z,11.64
2023-05-05T21:20:38.400Z,11.61
2023-05-05T21:22:10.453Z,11.58
2023-05-05T21:23:42.495Z,11.53
2023-05-05T21:25:16.305Z,11.50
2023-05-05T21:26:48.399Z,11.43
2023-05-05T21:28:20.491Z,11.41
2023-05-05T21:29:52.592Z,11.37
2023-05-05T21:31:24.740Z,11.34
2023-05-05T21:32:57.511Z,11.34
2023-05-05T21:34:29.612Z,11.32
2023-05-05T21:36:01.763Z,11.33
2023-05-05T21:37:34.223Z,11.33
2023-05-05T21:39:06.616Z,11.29
2023-05-05T21:40:38.702Z,11.33
2023-05-05T21:42:10.961Z,11.30
2023-05-05T21:43:43.058Z,11.25
2023-05-05T21:45:15.208Z,11.19
2023-05-05T21:46:47.379Z,11.13
2023-05-05T21:48:19.549Z,11.12
2023-05-05T21:49:51.653Z,11.10
2023-05-05T21:52:56.487Z,11.05
2023-05-05T21:54:28.495Z,11.05
2023-05-05T21:56:00.687Z,10.98
2023-05-05T21:57:32.739Z,10.89
2023-05-05T21:59:05.933Z,10.84
2023-05-05T22:00:38.009Z,10.76
2023-05-05T22:02:10.197Z,10.75
2023-05-05T22:03:43.979Z,10.73
2023-05-05T22:05:16.176Z,10.66
2023-05-05T22:06:48.218Z,10.65
2023-05-05T22:08:20.366Z,10.62
2023-05-05T22:09:55.191Z,10.55
2023-05-05T22:11:27.361Z,10.50
2023-05-05T22:12:59.437Z,10.46
2023-05-05T22:14:31.617Z,10.46
2023-05-05T22:16:03.650Z,10.48
2023-05-05T22:17:36.528Z,10.48
2023-05-05T22:19:08.624Z,10.48
2023-05-05T22:20:40.902Z,10.50
2023-05-05T22:22:13.013Z,10.52
2023-05-05T22:23:46.434Z,10.52
2023-05-05T22:25:18.478Z,10.58
2023-05-05T22:26:50.924Z,10.48
2023-05-05T22:28:23.547Z,10.47
2023-05-05T22:29:55.779Z,10.43
2023-05-05T22:31:27.898Z,10.40
2023-05-05T22:33:00.162Z,10.33
2023-05-05T22:34:32.257Z,10.30
2023-05-05T22:36:04.627Z,10.25
2023-05-05T22:37:36.831Z,10.19
2023-05-05T22:39:08.949Z,10.13
2023-05-05T22:40:41.209Z,10.06
2023-05-05T22:42:13.314Z,10.00
2023-05-05T22:43:45.487Z,9.95
2023-05-05T22:45:17.579Z,9.90
2023-05-05T22:46:49.753Z,9.86
2023-05-05T22:48:22.075Z,9.83
2023-05-05T22:49:54.273Z,9.79
2023-05-05T22:51:26.414Z,9.76
2023-05-05T22:52:58.476Z,9.75
2023-05-05T22:54:30.549Z,9.71
2023-05-05T22:56:02.628Z,9.66
2023-05-05T22:57:37.576Z,9.65
2023-05-05T22:59:09.697Z,9.59
2023-05-05T23:00:42.243Z,9.57
2023-05-05T23:02:15.076Z,9.55
2023-05-05T23:03:47.161Z,9.51
2023-05-05T23:05:19.339Z,9.50
2023-05-05T23:06:52.316Z,9.46
2023-05-05T23:08:24.526Z,9.43
2023-05-05T23:09:56.631Z,9.41
2023-05-05T23:11:31.626Z,9.37
2023-05-05T23:13:03.762Z,9.36
2023-05-05T23:14:36.457Z,9.33
2023-05-05T23:16:11.821Z,9.28
2023-05-05T23:17:44.021Z,9.24
2023-05-05T23:19:16.064Z,9.18
2023-05-05T23:20:48.049Z,9.16
2023-05-05T23:22:20.101Z,9.14
2023-05-05T23:23:52.262Z,9.15
2023-05-05T23:25:24.377Z,9.10
2023-05-05T23:26:59.798Z,9.11
2023-05-05T23:28:31.902Z,9.05
2023-05-05T23:30:04.197Z,9.04
2023-05-05T23:31:36.304Z,9.01
2023-05-05T23:33:08.441Z,9.00
2023-05-05T23:34:40.522Z,9.00
2023-05-05T23:36:12.572Z,8.97
2023-05-05T23:37:44.697Z,8.95
2023-05-05T23:39:16.952Z,8.95
2023-05-05T23:40:49.184Z,8.94
2023-05-05T23:42:21.259Z,8.91
2023-05-05T23:43:53.388Z,8.90
2023-05-05T23:45:25.510Z,8.89
2023-05-05T23:46:57.552Z,8.86
2023-05-05T23:48:29.613Z,8.82
2023-05-05T23:50:01.699Z,8.79
2023-05-05T23:51:33.828Z,8.81
2023-05-05T23:53:06.007Z,8.78
2023-05-05T23:54:38.039Z,8.76
2023-05-05T23:56:10.201Z,8.74
2023-05-05T23:57:42.217Z,8.72
2023-05-05T23:59:14.326Z,8.71
